sensor_id;sensor_type;location;lat;lon;timestamp;noise_LAeq;noise_LA_min;noise_LA_max;noise_LA01;noise_LA95
43787;Laerm;29409;49.306;8.500;2022-11-15T00:00:58;40.53;37.12;45.45;;
43787;Laerm;29409;49.306;8.500;2022-11-15T00:02:36;39.99;35.04;43.68;;
43787;Laerm;29409;49.306;8.500;2022-11-15T00:04:14;40.02;35.66;45.48;;
43787;Laerm;29409;49.306;8.500;2022-11-15T00:05:52;39.62;35.36;43.68;;
43787;Laerm;29409;49.306;8.500;2022-11-15T00:07:31;39.69;35.04;43.24;;
43787;Laerm;29409;49.306;8.500;2022-11-15T00:09:10;39.69;35.66;43.58;;
43787;Laerm;29409;49.306;8.500;2022-11-15T00:10:59;40.36;36.91;46.28;;
43787;Laerm;29409;49.306;8.500;2022-11-15T00:12:38;39.69;36.20;43.54;;
43787;Laerm;29409;49.306;8.500;2022-11-15T00:14:16;40.24;36.45;44.31;;
43787;Laerm;29409;49.306;8.500;2022-11-15T00:15:56;39.92;35.66;44.47;;
43787;Laerm;29409;49.306;8.500;2022-11-15T00:17:34;39.21;35.66;42.47;;
43787;Laerm;29409;49.306;8.500;2022-11-15T00:19:13;39.33;35.36;42.29;;
43787;Laerm;29409;49.306;8.500;2022-11-15T00:20:51;39.86;34.69;44.31;;
43787;Laerm;29409;49.306;8.500;2022-11-15T00:22:32;42.18;36.45;46.62;;
43787;Laerm;29409;49.306;8.500;2022-11-15T00:24:11;39.69;35.94;43.19;;
43787;Laerm;29409;49.306;8.500;2022-11-15T00:25:54;39.72;35.94;42.53;;
43787;Laerm;29409;49.306;8.500;2022-11-15T00:27:32;39.52;36.20;42.22;;
43787;Laerm;29409;49.306;8.500;2022-11-15T00:29:10;40.46;35.66;48.18;;
43787;Laerm;29409;49.306;8.500;2022-11-15T00:30:48;39.62;36.20;42.59;;
43787;Laerm;29409;49.306;8.500;2022-11-15T00:32:30;39.45;36.10;43.09;;
43787;Laerm;29409;49.306;8.500;2022-11-15T00:34:09;39.82;35.36;42.98;;
43787;Laerm;29409;49.306;8.500;2022-11-15T00:35:46;40.29;36.20;43.99;;
43787;Laerm;29409;49.306;8.500;2022-11-15T00:37:24;40.02;36.45;42.59;;
43787;Laerm;29409;49.306;8.500;2022-11-15T00:39:05;39.86;35.94;42.53;;
43787;Laerm;29409;49.306;8.500;2022-11-15T00:40:43;39.33;35.59;42.22;;
43787;Laerm;29409;49.306;8.500;2022-11-15T00:42:21;39.40;35.94;42.82;;
43787;Laerm;29409;49.306;8.500;2022-11-15T00:43:59;47.80;36.69;60.32;;
43787;Laerm;29409;49.306;8.500;2022-11-15T00:45:36;40.40;36.20;44.87;;
43787;Laerm;29409;49.306;8.500;2022-11-15T00:47:14;39.40;35.66;44.76;;
43787;Laerm;29409;49.306;8.500;2022-11-15T00:48:52;39.59;36.20;42.82;;
43787;Laerm;29409;49.306;8.500;2022-11-15T00:50:30;39.66;35.94;42.71;;
43787;Laerm;29409;49.306;8.500;2022-11-15T00:52:08;41.20;36.69;54.04;;
43787;Laerm;29409;49.306;8.500;2022-11-15T00:53:45;39.81;36.69;43.42;;
43787;Laerm;29409;49.306;8.500;2022-11-15T00:55:23;39.39;36.20;42.16;;
43787;Laerm;29409;49.306;8.500;2022-11-15T00:57:01;39.50;36.20;42.35;;
43787;Laerm;29409;49.306;8.500;2022-11-15T00:58:39;40.00;36.45;43.68;;
43787;Laerm;29409;49.306;8.500;2022-11-15T01:00:17;39.38;35.36;43.54;;
43787;Laerm;29409;49.306;8.500;2022-11-15T01:01:55;39.29;35.66;43.54;;
43787;Laerm;29409;49.306;8.500;2022-11-15T01:03:33;39.35;35.94;42.13;;
43787;Laerm;29409;49.306;8.500;2022-11-15T01:05:11;40.00;36.69;42.88;;
43787;Laerm;29409;49.306;8.500;2022-11-15T01:06:49;39.69;35.94;44.87;;
43787;Laerm;29409;49.306;8.500;2022-11-15T01:08:27;40.21;35.66;46.45;;
43787;Laerm;29409;49.306;8.500;2022-11-15T01:10:05;39.49;34.31;42.47;;
43787;Laerm;29409;49.306;8.500;2022-11-15T01:11:48;39.27;35.66;41.68;;
43787;Laerm;29409;49.306;8.500;2022-11-15T01:13:28;39.33;35.66;42.47;;
43787;Laerm;29409;49.306;8.500;2022-11-15T01:15:07;39.08;35.36;41.22;;
43787;Laerm;29409;49.306;8.500;2022-11-15T01:16:45;39.13;35.94;41.53;;
43787;Laerm;29409;49.306;8.500;2022-11-15T01:18:23;39.44;36.45;42.47;;
43787;Laerm;29409;49.306;8.500;2022-11-15T01:20:00;39.37;35.94;45.77;;
43787;Laerm;29409;49.306;8.500;2022-11-15T01:21:38;39.17;35.36;42.47;;
43787;Laerm;29409;49.306;8.500;2022-11-15T01:23:16;39.20;35.36;42.64;;
43787;Laerm;29409;49.306;8.500;2022-11-15T01:24:54;40.03;35.94;43.34;;
43787;Laerm;29409;49.306;8.500;2022-11-15T01:26:32;39.78;36.20;42.29;;
43787;Laerm;29409;49.306;8.500;2022-11-15T01:28:10;39.49;35.66;42.88;;
43787;Laerm;29409;49.306;8.500;2022-11-15T01:29:48;39.61;35.36;42.16;;
43787;Laerm;29409;49.306;8.500;2022-11-15T01:31:26;39.45;35.04;42.59;;
43787;Laerm;29409;49.306;8.500;2022-11-15T01:33:05;39.61;35.04;43.14;;
43787;Laerm;29409;49.306;8.500;2022-11-15T01:34:44;39.27;35.94;42.47;;
43787;Laerm;29409;49.306;8.500;2022-11-15T01:36:22;39.62;36.45;42.59;;
43787;Laerm;29409;49.306;8.500;2022-11-15T01:38:00;39.21;35.36;42.03;;
43787;Laerm;29409;49.306;8.500;2022-11-15T01:39:38;39.00;34.69;42.71;;
43787;Laerm;29409;49.306;8.500;2022-11-15T01:41:17;38.97;34.31;41.82;;
43787;Laerm;29409;49.306;8.500;2022-11-15T01:42:55;39.77;35.94;44.65;;
43787;Laerm;29409;49.306;8.500;2022-11-15T01:48:01;38.89;34.69;41.82;;
43787;Laerm;29409;49.306;8.500;2022-11-15T01:49:41;39.00;35.04;42.09;;
43787;Laerm;29409;49.306;8.500;2022-11-15T01:51:21;39.71;35.66;44.15;;
43787;Laerm;29409;49.306;8.500;2022-11-15T01:53:00;39.52;35.94;42.09;;
43787;Laerm;29409;49.306;8.500;2022-11-15T01:54:39;40.35;36.45;47.10;;
43787;Laerm;29409;49.306;8.500;2022-11-15T01:56:21;40.19;36.45;43.39;;
43787;Laerm;29409;49.306;8.500;2022-11-15T01:58:01;39.57;35.04;42.03;;
43787;Laerm;29409;49.306;8.500;2022-11-15T01:59:40;42.18;35.04;64.04;;
43787;Laerm;29409;49.306;8.500;2022-11-15T02:01:21;39.55;35.04;43.72;;
43787;Laerm;29409;49.306;8.500;2022-11-15T02:03:00;39.52;35.66;42.42;;
43787;Laerm;29409;49.306;8.500;2022-11-15T02:04:43;39.56;35.94;41.82;;
43787;Laerm;29409;49.306;8.500;2022-11-15T02:06:22;39.57;35.66;42.29;;
43787;Laerm;29409;49.306;8.500;2022-11-15T02:08:00;39.34;35.36;47.34;;
43787;Laerm;29409;49.306;8.500;2022-11-15T02:09:39;39.55;35.66;43.81;;
43787;Laerm;29409;49.306;8.500;2022-11-15T02:11:17;39.36;35.36;42.03;;
43787;Laerm;29409;49.306;8.500;2022-11-15T02:12:55;39.29;35.66;44.62;;
43787;Laerm;29409;49.306;8.500;2022-11-15T02:14:34;40.00;35.94;46.10;;
43787;Laerm;29409;49.306;8.500;2022-11-15T02:18:05;39.15;35.04;44.39;;
43787;Laerm;29409;49.306;8.500;2022-11-15T02:23:47;39.44;35.94;42.03;;
43787;Laerm;29409;49.306;8.500;2022-11-15T02:29:33;40.14;36.69;42.59;;
43787;Laerm;29409;49.306;8.500;2022-11-15T02:31:19;41.18;36.69;46.05;;
43787;Laerm;29409;49.306;8.500;2022-11-15T02:33:11;39.12;34.69;41.82;;
43787;Laerm;29409;49.306;8.500;2022-11-15T02:37:11;39.22;36.10;41.61;;
43787;Laerm;29409;49.306;8.500;2022-11-15T02:40:49;42.31;33.90;58.57;;
43787;Laerm;29409;49.306;8.500;2022-11-15T02:42:32;39.66;36.45;42.98;;
43787;Laerm;29409;49.306;8.500;2022-11-15T02:44:31;39.59;35.36;45.83;;
43787;Laerm;29409;49.306;8.500;2022-11-15T02:47:49;39.13;33.90;41.75;;
43787;Laerm;29409;49.306;8.500;2022-11-15T02:49:31;40.07;34.69;45.20;;
43787;Laerm;29409;49.306;8.500;2022-11-15T02:51:10;40.38;36.91;44.43;;
43787;Laerm;29409;49.306;8.500;2022-11-15T02:52:49;40.26;36.69;46.73;;
43787;Laerm;29409;49.306;8.500;2022-11-15T02:54:31;40.24;36.45;47.46;;
43787;Laerm;29409;49.306;8.500;2022-11-15T02:56:09;39.40;35.94;41.96;;
43787;Laerm;29409;49.306;8.500;2022-11-15T02:57:55;39.39;35.04;42.29;;
43787;Laerm;29409;49.306;8.500;2022-11-15T03:04:44;39.76;36.91;42.29;;
43787;Laerm;29409;49.306;8.500;2022-11-15T03:08:29;40.92;37.32;43.94;;
43787;Laerm;29409;49.306;8.500;2022-11-15T03:11:48;39.90;36.56;41.96;;
43787;Laerm;29409;49.306;8.500;2022-11-15T03:13:33;39.57;35.04;42.16;;
43787;Laerm;29409;49.306;8.500;2022-11-15T03:15:17;39.55;34.69;42.41;;
43787;Laerm;29409;49.306;8.500;2022-11-15T03:18:40;39.63;35.66;42.47;;
43787;Laerm;29409;49.306;8.500;2022-11-15T03:20:19;39.49;36.10;42.16;;
43787;Laerm;29409;49.306;8.500;2022-11-15T03:21:57;39.67;35.94;41.96;;
43787;Laerm;29409;49.306;8.500;2022-11-15T03:23:37;39.84;36.45;43.90;;
43787;Laerm;29409;49.306;8.500;2022-11-15T03:25:19;40.06;36.91;44.31;;
43787;Laerm;29409;49.306;8.500;2022-11-15T03:26:59;40.08;36.91;42.35;;
43787;Laerm;29409;49.306;8.500;2022-11-15T03:30:41;40.14;36.69;42.65;;
43787;Laerm;29409;49.306;8.500;2022-11-15T03:32:23;40.38;36.10;45.54;;
43787;Laerm;29409;49.306;8.500;2022-11-15T03:34:02;40.43;36.45;43.04;;
43787;Laerm;29409;49.306;8.500;2022-11-15T03:35:43;39.57;36.69;41.89;;
43787;Laerm;29409;49.306;8.500;2022-11-15T03:37:24;40.38;36.69;44.23;;
43787;Laerm;29409;49.306;8.500;2022-11-15T03:39:05;40.39;36.45;43.63;;
43787;Laerm;29409;49.306;8.500;2022-11-15T03:42:46;40.40;36.69;46.38;;
43787;Laerm;29409;49.306;8.500;2022-11-15T03:44:36;40.63;37.32;44.80;;
43787;Laerm;29409;49.306;8.500;2022-11-15T03:46:23;40.86;37.88;45.36;;
43787;Laerm;29409;49.306;8.500;2022-11-15T03:48:09;41.08;37.88;46.30;;
43787;Laerm;29409;49.306;8.500;2022-11-15T03:49:59;39.95;37.12;42.35;;
43787;Laerm;29409;49.306;8.500;2022-11-15T03:51:38;39.95;36.20;43.90;;
43787;Laerm;29409;49.306;8.500;2022-11-15T03:53:17;40.44;35.94;44.51;;
43787;Laerm;29409;49.306;8.500;2022-11-15T03:54:56;40.03;36.20;44.80;;
43787;Laerm;29409;49.306;8.500;2022-11-15T03:56:34;40.14;36.69;44.39;;
43787;Laerm;29409;49.306;8.500;2022-11-15T03:58:13;40.30;37.12;45.60;;
43787;Laerm;29409;49.306;8.500;2022-11-15T03:59:52;40.94;37.52;44.31;;
43787;Laerm;29409;49.306;8.500;2022-11-15T04:01:30;40.90;37.52;46.80;;
43787;Laerm;29409;49.306;8.500;2022-11-15T04:03:08;40.58;37.12;45.77;;
43787;Laerm;29409;49.306;8.500;2022-11-15T04:04:46;41.64;36.69;46.30;;
43787;Laerm;29409;49.306;8.500;2022-11-15T04:06:23;41.21;38.05;44.39;;
43787;Laerm;29409;49.306;8.500;2022-11-15T04:08:01;41.53;38.52;62.19;;
43787;Laerm;29409;49.306;8.500;2022-11-15T04:09:39;41.62;37.88;58.81;;
43787;Laerm;29409;49.306;8.500;2022-11-15T04:11:36;41.68;38.05;46.78;;
43787;Laerm;29409;49.306;8.500;2022-11-15T04:13:14;42.49;39.08;48.49;;
43787;Laerm;29409;49.306;8.500;2022-11-15T04:14:53;41.46;38.21;46.05;;
43787;Laerm;29409;49.306;8.500;2022-11-15T04:16:44;41.70;38.21;47.40;;
43787;Laerm;29409;49.306;8.500;2022-11-15T04:18:22;41.93;38.21;46.65;;
43787;Laerm;29409;49.306;8.500;2022-11-15T04:20:00;41.63;38.37;45.30;;
43787;Laerm;29409;49.306;8.500;2022-11-15T04:21:57;41.88;38.21;45.89;;
43787;Laerm;29409;49.306;8.500;2022-11-15T04:23:53;40.96;37.88;47.22;;
43787;Laerm;29409;49.306;8.500;2022-11-15T04:25:51;41.13;37.87;44.58;;
43787;Laerm;29409;49.306;8.500;2022-11-15T04:27:29;47.99;38.37;67.75;;
43787;Laerm;29409;49.306;8.500;2022-11-15T04:29:07;42.82;39.34;51.33;;
43787;Laerm;29409;49.306;8.500;2022-11-15T04:31:03;41.17;38.21;43.72;;
43787;Laerm;29409;49.306;8.500;2022-11-15T04:32:42;41.78;38.05;47.04;;
43787;Laerm;29409;49.306;8.500;2022-11-15T04:34:20;41.34;38.05;46.87;;
43787;Laerm;29409;49.306;8.500;2022-11-15T04:35:59;42.04;37.88;48.61;;
43787;Laerm;29409;49.306;8.500;2022-11-15T04:37:56;44.23;38.67;57.94;;
43787;Laerm;29409;49.306;8.500;2022-11-15T04:39:34;41.74;38.52;46.40;;
43787;Laerm;29409;49.306;8.500;2022-11-15T04:41:12;42.36;39.58;45.33;;
43787;Laerm;29409;49.306;8.500;2022-11-15T04:42:50;41.58;38.37;46.87;;
43787;Laerm;29409;49.306;8.500;2022-11-15T04:44:28;42.29;38.67;48.74;;
43787;Laerm;29409;49.306;8.500;2022-11-15T04:46:06;41.78;38.52;47.16;;
43787;Laerm;29409;49.306;8.500;2022-11-15T04:47:44;44.28;39.46;54.93;;
43787;Laerm;29409;49.306;8.500;2022-11-15T04:49:22;41.90;38.67;46.13;;
43787;Laerm;29409;49.306;8.500;2022-11-15T04:51:00;42.50;39.34;56.21;;
43787;Laerm;29409;49.306;8.500;2022-11-15T04:52:42;42.21;39.08;51.56;;
43787;Laerm;29409;49.306;8.500;2022-11-15T04:54:21;41.22;38.52;43.54;;
43787;Laerm;29409;49.306;8.500;2022-11-15T04:55:59;41.28;38.21;45.60;;
43787;Laerm;29409;49.306;8.500;2022-11-15T04:57:37;41.66;37.88;45.75;;
43787;Laerm;29409;49.306;8.500;2022-11-15T04:59:17;42.53;38.21;52.04;;
43787;Laerm;29409;49.306;8.500;2022-11-15T05:00:54;46.46;38.95;64.68;;
43787;Laerm;29409;49.306;8.500;2022-11-15T05:02:32;42.23;39.21;45.27;;
43787;Laerm;29409;49.306;8.500;2022-11-15T05:04:29;42.45;39.46;45.99;;
43787;Laerm;29409;49.306;8.500;2022-11-15T05:06:07;42.13;39.46;45.77;;
43787;Laerm;29409;49.306;8.500;2022-11-15T05:07:45;43.68;38.95;55.26;;
43787;Laerm;29409;49.306;8.500;2022-11-15T05:09:23;42.20;39.81;45.36;;
43787;Laerm;29409;49.306;8.500;2022-11-15T05:11:01;42.58;39.21;51.51;;
43787;Laerm;29409;49.306;8.500;2022-11-15T05:12:39;42.41;39.92;46.52;;
43787;Laerm;29409;49.306;8.500;2022-11-15T05:14:17;42.74;39.81;50.42;;
43787;Laerm;29409;49.306;8.500;2022-11-15T05:15:54;42.76;39.34;50.82;;
43787;Laerm;29409;49.306;8.500;2022-11-15T05:17:32;42.34;39.81;45.69;;
43787;Laerm;29409;49.306;8.500;2022-11-15T05:19:11;42.59;39.92;47.22;;
43787;Laerm;29409;49.306;8.500;2022-11-15T05:20:49;43.04;39.35;47.35;;
43787;Laerm;29409;49.306;8.500;2022-11-15T05:22:27;43.05;39.92;47.70;;
43787;Laerm;29409;49.306;8.500;2022-11-15T05:24:05;41.97;39.21;45.83;;
43787;Laerm;29409;49.306;8.500;2022-11-15T05:25:43;41.86;39.08;45.78;;
43787;Laerm;29409;49.306;8.500;2022-11-15T05:27:21;41.72;38.67;44.47;;
43787;Laerm;29409;49.306;8.500;2022-11-15T05:28:59;44.03;39.08;68.81;;
43787;Laerm;29409;49.306;8.500;2022-11-15T05:30:37;41.85;38.95;45.89;;
43787;Laerm;29409;49.306;8.500;2022-11-15T05:32:15;41.77;39.08;51.84;;
43787;Laerm;29409;49.306;8.500;2022-11-15T05:33:54;42.84;39.34;53.55;;
43787;Laerm;29409;49.306;8.500;2022-11-15T05:35:40;43.11;39.58;48.29;;
43787;Laerm;29409;49.306;8.500;2022-11-15T05:37:19;45.52;39.58;59.20;;
43787;Laerm;29409;49.306;8.500;2022-11-15T05:38:56;42.83;39.08;46.69;;
43787;Laerm;29409;49.306;8.500;2022-11-15T05:40:34;44.57;39.81;59.75;;
43787;Laerm;29409;49.306;8.500;2022-11-15T05:42:13;42.56;40.03;46.25;;
43787;Laerm;29409;49.306;8.500;2022-11-15T05:43:51;46.34;40.03;67.09;;
43787;Laerm;29409;49.306;8.500;2022-11-15T05:45:31;42.79;39.34;50.21;;
43787;Laerm;29409;49.306;8.500;2022-11-15T05:47:10;43.36;39.08;49.02;;
43787;Laerm;29409;49.306;8.500;2022-11-15T05:48:50;42.73;39.21;48.67;;
43787;Laerm;29409;49.306;8.500;2022-11-15T05:50:29;43.17;39.58;53.32;;
43787;Laerm;29409;49.306;8.500;2022-11-15T05:52:08;43.36;39.21;49.28;;
43787;Laerm;29409;49.306;8.500;2022-11-15T05:53:49;42.20;39.21;46.18;;
43787;Laerm;29409;49.306;8.500;2022-11-15T05:55:29;42.55;38.67;50.49;;
43787;Laerm;29409;49.306;8.500;2022-11-15T05:57:07;43.81;38.21;59.07;;
43787;Laerm;29409;49.306;8.500;2022-11-15T05:58:45;43.06;39.21;58.98;;
43787;Laerm;29409;49.306;8.500;2022-11-15T06:00:23;42.57;39.58;46.95;;
43787;Laerm;29409;49.306;8.500;2022-11-15T06:02:01;45.97;39.08;64.39;;
43787;Laerm;29409;49.306;8.500;2022-11-15T06:03:39;43.20;39.70;47.68;;
43787;Laerm;29409;49.306;8.500;2022-11-15T06:05:16;42.96;40.45;48.95;;
43787;Laerm;29409;49.306;8.500;2022-11-15T06:06:54;45.70;40.03;59.68;;
43787;Laerm;29409;49.306;8.500;2022-11-15T06:08:33;43.48;39.46;60.69;;
43787;Laerm;29409;49.306;8.500;2022-11-15T06:10:11;47.73;40.13;64.75;;
43787;Laerm;29409;49.306;8.500;2022-11-15T06:11:49;43.68;40.43;51.86;;
43787;Laerm;29409;49.306;8.500;2022-11-15T06:13:27;44.49;40.33;51.90;;
43787;Laerm;29409;49.306;8.500;2022-11-15T06:15:05;43.87;40.98;49.94;;
43787;Laerm;29409;49.306;8.500;2022-11-15T06:16:43;43.11;39.89;47.06;;
43787;Laerm;29409;49.306;8.500;2022-11-15T06:18:21;42.33;39.58;46.80;;
43787;Laerm;29409;49.306;8.500;2022-11-15T06:19:59;46.90;39.21;61.99;;
43787;Laerm;29409;49.306;8.500;2022-11-15T06:21:37;44.55;40.62;53.59;;
43787;Laerm;29409;49.306;8.500;2022-11-15T06:23:15;43.64;39.81;51.37;;
43787;Laerm;29409;49.306;8.500;2022-11-15T06:24:53;42.53;39.81;46.38;;
43787;Laerm;29409;49.306;8.500;2022-11-15T06:26:31;42.85;40.13;50.74;;
43787;Laerm;29409;49.306;8.500;2022-11-15T06:28:10;42.90;40.13;50.09;;
43787;Laerm;29409;49.306;8.500;2022-11-15T06:29:49;42.54;39.81;46.87;;
43787;Laerm;29409;49.306;8.500;2022-11-15T06:31:27;42.70;39.92;46.40;;
43787;Laerm;29409;49.306;8.500;2022-11-15T06:33:05;43.11;40.43;49.84;;
43787;Laerm;29409;49.306;8.500;2022-11-15T06:34:43;43.29;39.08;51.50;;
43787;Laerm;29409;49.306;8.500;2022-11-15T06:36:21;42.15;39.34;47.96;;
43787;Laerm;29409;49.306;8.500;2022-11-15T06:38:02;42.61;39.34;47.95;;
43787;Laerm;29409;49.306;8.500;2022-11-15T06:39:40;45.28;39.34;59.10;;
43787;Laerm;29409;49.306;8.500;2022-11-15T06:41:18;42.66;39.70;48.81;;
43787;Laerm;29409;49.306;8.500;2022-11-15T06:43:00;43.46;40.33;51.79;;
43787;Laerm;29409;49.306;8.500;2022-11-15T06:44:38;43.97;40.33;53.21;;
43787;Laerm;29409;49.306;8.500;2022-11-15T06:46:16;43.53;39.92;53.06;;
43787;Laerm;29409;49.306;8.500;2022-11-15T06:47:54;44.34;40.62;54.43;;
43787;Laerm;29409;49.306;8.500;2022-11-15T06:49:32;49.26;40.54;65.75;;
43787;Laerm;29409;49.306;8.500;2022-11-15T06:51:10;42.55;40.23;46.28;;
43787;Laerm;29409;49.306;8.500;2022-11-15T06:52:48;43.00;39.70;47.74;;
43787;Laerm;29409;49.306;8.500;2022-11-15T06:54:26;42.64;39.34;47.06;;
43787;Laerm;29409;49.306;8.500;2022-11-15T06:56:04;42.58;39.34;52.59;;
43787;Laerm;29409;49.306;8.500;2022-11-15T06:57:46;45.14;42.16;52.70;;
43787;Laerm;29409;49.306;8.500;2022-11-15T06:59:24;45.21;39.81;58.42;;
43787;Laerm;29409;49.306;8.500;2022-11-15T07:01:06;48.64;39.70;68.89;;
43787;Laerm;29409;49.306;8.500;2022-11-15T07:02:44;43.11;39.58;62.65;;
43787;Laerm;29409;49.306;8.500;2022-11-15T07:04:23;44.76;40.13;54.85;;
43787;Laerm;29409;49.306;8.500;2022-11-15T07:06:01;45.19;40.62;61.38;;
43787;Laerm;29409;49.306;8.500;2022-11-15T07:07:39;42.95;40.23;47.46;;
43787;Laerm;29409;49.306;8.500;2022-11-15T07:09:19;42.65;39.34;48.88;;
43787;Laerm;29409;49.306;8.500;2022-11-15T07:11:00;42.23;39.70;45.54;;
43787;Laerm;29409;49.306;8.500;2022-11-15T07:12:39;45.77;39.34;61.75;;
43787;Laerm;29409;49.306;8.500;2022-11-15T07:14:17;43.47;39.58;57.32;;
43787;Laerm;29409;49.306;8.500;2022-11-15T07:15:55;43.26;39.46;55.41;;
43787;Laerm;29409;49.306;8.500;2022-11-15T07:17:33;44.00;38.95;55.69;;
43787;Laerm;29409;49.306;8.500;2022-11-15T07:19:11;43.16;38.21;51.29;;
43787;Laerm;29409;49.306;8.500;2022-11-15T07:20:49;44.93;39.34;56.49;;
43787;Laerm;29409;49.306;8.500;2022-11-15T07:22:27;43.71;39.46;50.07;;
43787;Laerm;29409;49.306;8.500;2022-11-15T07:24:05;44.66;40.03;57.75;;
43787;Laerm;29409;49.306;8.500;2022-11-15T07:25:44;44.04;40.96;56.71;;
43787;Laerm;29409;49.306;8.500;2022-11-15T07:27:22;44.78;40.98;54.54;;
43787;Laerm;29409;49.306;8.500;2022-11-15T07:29:01;44.24;40.79;59.03;;
43787;Laerm;29409;49.306;8.500;2022-11-15T07:30:39;42.56;40.13;45.01;;
43787;Laerm;29409;49.306;8.500;2022-11-15T07:32:17;43.90;40.80;57.75;;
43787;Laerm;29409;49.306;8.500;2022-11-15T07:33:55;43.30;39.21;53.77;;
43787;Laerm;29409;49.306;8.500;2022-11-15T07:35:32;44.53;39.70;60.02;;
43787;Laerm;29409;49.306;8.500;2022-11-15T07:37:10;45.16;39.81;60.79;;
43787;Laerm;29409;49.306;8.500;2022-11-15T07:38:48;47.41;39.92;71.80;;
43787;Laerm;29409;49.306;8.500;2022-11-15T07:40:26;42.45;38.67;48.03;;
43787;Laerm;29409;49.306;8.500;2022-11-15T07:42:05;42.36;39.34;48.96;;
43787;Laerm;29409;49.306;8.500;2022-11-15T07:44:02;43.33;39.21;52.69;;
43787;Laerm;29409;49.306;8.500;2022-11-15T07:45:41;42.35;39.34;49.32;;
43787;Laerm;29409;49.306;8.500;2022-11-15T07:47:19;44.98;39.70;60.79;;
43787;Laerm;29409;49.306;8.500;2022-11-15T07:48:58;45.37;40.23;56.47;;
43787;Laerm;29409;49.306;8.500;2022-11-15T07:50:35;42.23;39.58;48.46;;
43787;Laerm;29409;49.306;8.500;2022-11-15T07:52:13;41.93;38.37;48.84;;
43787;Laerm;29409;49.306;8.500;2022-11-15T07:53:52;42.05;39.08;45.23;;
43787;Laerm;29409;49.306;8.500;2022-11-15T07:55:29;43.19;40.33;46.66;;
43787;Laerm;29409;49.306;8.500;2022-11-15T07:57:08;46.31;38.67;74.88;;
43787;Laerm;29409;49.306;8.500;2022-11-15T07:58:47;41.87;38.05;50.85;;
43787;Laerm;29409;49.306;8.500;2022-11-15T08:00:25;41.99;38.52;45.75;;
43787;Laerm;29409;49.306;8.500;2022-11-15T08:02:03;42.22;38.37;50.97;;
43787;Laerm;29409;49.306;8.500;2022-11-15T08:03:41;41.37;38.67;44.15;;
43787;Laerm;29409;49.306;8.500;2022-11-15T08:05:20;42.43;39.58;48.26;;
43787;Laerm;29409;49.306;8.500;2022-11-15T08:06:58;42.08;39.08;45.33;;
43787;Laerm;29409;49.306;8.500;2022-11-15T08:08:36;46.53;39.68;61.17;;
43787;Laerm;29409;49.306;8.500;2022-11-15T08:10:14;43.85;39.81;51.13;;
43787;Laerm;29409;49.306;8.500;2022-11-15T08:11:54;42.03;38.05;45.17;;
43787;Laerm;29409;49.306;8.500;2022-11-15T08:13:32;41.93;38.95;47.42;;
43787;Laerm;29409;49.306;8.500;2022-11-15T08:15:11;43.94;38.52;55.79;;
43787;Laerm;29409;49.306;8.500;2022-11-15T08:16:48;41.67;38.67;48.57;;
43787;Laerm;29409;49.306;8.500;2022-11-15T08:18:26;44.24;39.81;56.55;;
43787;Laerm;29409;49.306;8.500;2022-11-15T08:20:04;42.17;39.46;46.55;;
43787;Laerm;29409;49.306;8.500;2022-11-15T08:21:42;42.51;38.21;56.07;;
43787;Laerm;29409;49.306;8.500;2022-11-15T08:23:20;42.84;38.37;53.75;;
43787;Laerm;29409;49.306;8.500;2022-11-15T08:24:58;46.43;38.37;61.26;;
43787;Laerm;29409;49.306;8.500;2022-11-15T08:26:36;43.42;39.46;55.30;;
43787;Laerm;29409;49.306;8.500;2022-11-15T08:28:15;43.18;38.81;55.63;;
43787;Laerm;29409;49.306;8.500;2022-11-15T08:29:53;41.15;38.05;57.32;;
43787;Laerm;29409;49.306;8.500;2022-11-15T08:31:31;44.90;38.21;63.18;;
43787;Laerm;29409;49.306;8.500;2022-11-15T08:33:10;53.52;38.52;76.88;;
43787;Laerm;29409;49.306;8.500;2022-11-15T08:34:48;45.03;38.67;61.85;;
43787;Laerm;29409;49.306;8.500;2022-11-15T08:36:26;42.31;39.34;47.06;;
43787;Laerm;29409;49.306;8.500;2022-11-15T08:38:04;45.29;38.81;60.91;;
43787;Laerm;29409;49.306;8.500;2022-11-15T08:39:42;42.17;39.21;49.08;;
43787;Laerm;29409;49.306;8.500;2022-11-15T08:41:26;42.24;38.67;49.89;;
43787;Laerm;29409;49.306;8.500;2022-11-15T08:43:05;42.49;39.08;47.90;;
43787;Laerm;29409;49.306;8.500;2022-11-15T08:44:44;41.84;38.81;46.62;;
43787;Laerm;29409;49.306;8.500;2022-11-15T08:46:23;43.28;38.95;53.99;;
43787;Laerm;29409;49.306;8.500;2022-11-15T08:48:01;44.19;39.58;55.37;;
43787;Laerm;29409;49.306;8.500;2022-11-15T08:49:40;41.79;38.95;49.56;;
43787;Laerm;29409;49.306;8.500;2022-11-15T08:51:18;46.38;38.67;70.50;;
43787;Laerm;29409;49.306;8.500;2022-11-15T08:52:56;47.46;38.67;69.49;;
43787;Laerm;29409;49.306;8.500;2022-11-15T08:54:34;42.01;37.88;57.44;;
43787;Laerm;29409;49.306;8.500;2022-11-15T08:56:14;42.72;38.67;50.31;;
43787;Laerm;29409;49.306;8.500;2022-11-15T08:57:52;41.92;38.67;47.46;;
43787;Laerm;29409;49.306;8.500;2022-11-15T08:59:30;41.79;38.52;46.13;;
43787;Laerm;29409;49.306;8.500;2022-11-15T09:01:18;43.39;38.81;52.21;;
43787;Laerm;29409;49.306;8.500;2022-11-15T09:03:01;43.68;38.52;52.37;;
43787;Laerm;29409;49.306;8.500;2022-11-15T09:04:41;41.35;38.37;46.10;;
43787;Laerm;29409;49.306;8.500;2022-11-15T09:06:19;41.88;37.52;51.13;;
43787;Laerm;29409;49.306;8.500;2022-11-15T09:07:57;41.97;38.52;49.39;;
43787;Laerm;29409;49.306;8.500;2022-11-15T09:09:35;41.30;38.21;47.02;;
43787;Laerm;29409;49.306;8.500;2022-11-15T09:11:13;41.89;36.91;47.61;;
43787;Laerm;29409;49.306;8.500;2022-11-15T09:12:53;46.05;37.70;63.99;;
43787;Laerm;29409;49.306;8.500;2022-11-15T09:14:31;41.84;37.88;49.44;;
43787;Laerm;29409;49.306;8.500;2022-11-15T09:16:10;43.74;39.08;52.78;;
43787;Laerm;29409;49.306;8.500;2022-11-15T09:17:49;41.67;37.32;49.74;;
43787;Laerm;29409;49.306;8.500;2022-11-15T09:19:29;44.27;37.12;55.89;;
43787;Laerm;29409;49.306;8.500;2022-11-15T09:21:07;41.59;37.88;45.94;;
43787;Laerm;29409;49.306;8.500;2022-11-15T09:22:45;44.39;38.60;56.24;;
43787;Laerm;29409;49.306;8.500;2022-11-15T09:24:23;46.17;36.20;62.57;;
43787;Laerm;29409;49.306;8.500;2022-11-15T09:26:02;42.14;37.52;49.73;;
43787;Laerm;29409;49.306;8.500;2022-11-15T09:27:41;43.70;37.70;53.42;;
43787;Laerm;29409;49.306;8.500;2022-11-15T09:29:18;41.69;37.12;49.09;;
43787;Laerm;29409;49.306;8.500;2022-11-15T09:31:00;41.37;37.70;44.80;;
43787;Laerm;29409;49.306;8.500;2022-11-15T09:32:38;43.71;36.45;51.97;;
43787;Laerm;29409;49.306;8.500;2022-11-15T09:34:16;42.49;37.70;48.83;;
43787;Laerm;29409;49.306;8.500;2022-11-15T09:35:54;41.38;37.12;47.46;;
43787;Laerm;29409;49.306;8.500;2022-11-15T09:37:32;51.67;37.12;67.13;;
43787;Laerm;29409;49.306;8.500;2022-11-15T09:39:10;42.03;37.70;50.47;;
43787;Laerm;29409;49.306;8.500;2022-11-15T09:40:49;45.17;38.52;56.46;;
43787;Laerm;29409;49.306;8.500;2022-11-15T09:50:31;41.80;36.91;56.17;;
43787;Laerm;29409;49.306;8.500;2022-11-15T09:52:10;43.92;37.32;61.05;;
43787;Laerm;29409;49.306;8.500;2022-11-15T09:55:32;43.21;38.05;52.07;;
43787;Laerm;29409;49.306;8.500;2022-11-15T09:57:16;43.48;37.70;55.06;;
43787;Laerm;29409;49.306;8.500;2022-11-15T10:00:41;43.42;38.37;64.99;;
43787;Laerm;29409;49.306;8.500;2022-11-15T10:04:01;44.93;38.95;56.42;;